Terminal Aerodrome Forecast
Issued by NWS

Home | Current Version | Previous Version | Text Only | Print | Product List | Glossary On
Versions: 1 2 3 4 5 6 7 8 9 10 11 12 13 14 15 16 17 18 19 20 21 22 23 24
106
FTUS43 KDLH 182133 AAA
TAFBRD
TAF AMD
KBRD 182133Z 1822/1918 26007G15KT P6SM FEW110 BKN160
     FM190000 26005KT P6SM FEW110 SCT160
     FM190400 VRB03KT 5SM BR BKN150
     FM190800 00000KT 2SM BR BKN020 BKN120
     FM191400 13005KT P6SM SCT150=

USA.gov is the U.S. government's official web portal to all federal, state and local government web resources and services.